createdAt,value
2022-10-05T00:01:48.465Z,13.26
2022-10-05T00:04:16.689Z,13.25
2022-10-05T00:06:44.577Z,13.22
2022-10-05T00:09:12.302Z,13.19
2022-10-05T00:11:40.097Z,13.14
2022-10-05T00:14:08.032Z,13.08
2022-10-05T00:16:35.620Z,13.03
2022-10-05T00:19:03.272Z,13.00
2022-10-05T00:21:30.817Z,12.95
2022-10-05T00:23:58.398Z,12.94
2022-10-05T00:26:26.637Z,12.93
2022-10-05T00:28:54.185Z,12.94
2022-10-05T00:31:21.811Z,12.96
2022-10-05T00:33:49.472Z,12.99
2022-10-05T00:36:17.029Z,13.01
2022-10-05T00:38:44.994Z,13.07
2022-10-05T00:41:12.576Z,13.08
2022-10-05T00:43:40.133Z,13.06
2022-10-05T00:46:08.856Z,13.05
2022-10-05T00:48:39.247Z,13.01
2022-10-05T00:51:07.168Z,13.00
2022-10-05T00:53:34.869Z,13.01
2022-10-05T00:56:02.435Z,13.02
2022-10-05T00:58:29.958Z,13.03
2022-10-05T01:00:57.776Z,13.02
2022-10-05T01:03:25.391Z,13.02
2022-10-05T01:05:52.929Z,13.01
2022-10-05T01:08:20.491Z,13.00
2022-10-05T01:10:48.091Z,12.97
2022-10-05T01:13:15.815Z,12.92
2022-10-05T01:15:43.794Z,12.88
2022-10-05T01:18:11.397Z,12.86
2022-10-05T01:20:39.608Z,12.83
2022-10-05T01:23:07.154Z,12.79
2022-10-05T01:25:34.943Z,12.75
2022-10-05T01:28:02.955Z,12.69
2022-10-05T01:30:30.555Z,12.65
2022-10-05T01:32:58.142Z,12.65
2022-10-05T01:35:25.728Z,12.63
2022-10-05T01:37:53.671Z,12.61
2022-10-05T01:40:21.592Z,12.62
2022-10-05T01:42:49.134Z,12.67
2022-10-05T01:45:16.687Z,12.71
2022-10-05T01:47:44.731Z,12.78
2022-10-05T01:50:12.297Z,12.82
2022-10-05T01:52:40.224Z,12.83
2022-10-05T01:55:07.823Z,12.83
2022-10-05T01:57:35.363Z,12.85
2022-10-05T02:00:03.388Z,12.88
2022-10-05T02:02:31.030Z,12.90
2022-10-05T02:05:02.977Z,12.92
2022-10-05T02:07:31.095Z,12.94
2022-10-05T02:09:58.680Z,12.95
2022-10-05T02:12:26.288Z,12.96
2022-10-05T02:14:55.653Z,12.97
2022-10-05T02:17:23.601Z,12.98
2022-10-05T02:19:51.154Z,13.00
2022-10-05T02:22:18.698Z,13.03
2022-10-05T02:24:46.372Z,13.05
2022-10-05T02:27:14.769Z,13.06
2022-10-05T02:29:42.709Z,13.06
2022-10-05T02:32:10.316Z,13.04
2022-10-05T02:34:37.888Z,13.04
2022-10-05T02:37:05.883Z,13.01
2022-10-05T02:39:33.517Z,13.02
2022-10-05T02:42:01.459Z,13.06
2022-10-05T02:44:29.015Z,13.08
2022-10-05T02:46:57.715Z,13.09
2022-10-05T02:49:25.569Z,13.07
2022-10-05T02:51:53.201Z,13.07
2022-10-05T02:54:20.824Z,13.08
2022-10-05T02:56:48.742Z,13.10
2022-10-05T02:59:16.875Z,13.13
2022-10-05T03:01:44.534Z,13.17
2022-10-05T03:04:12.379Z,13.16
2022-10-05T03:06:40.381Z,13.19
2022-10-05T03:09:07.998Z,13.20
2022-10-05T03:11:35.537Z,13.23
2022-10-05T03:14:03.143Z,13.26
2022-10-05T03:16:31.063Z,13.29
2022-10-05T03:18:59.131Z,13.28
2022-10-05T03:21:27.252Z,13.27
2022-10-05T03:23:54.845Z,13.27
2022-10-05T03:26:22.400Z,13.25
2022-10-05T03:28:50.138Z,13.23
2022-10-05T03:31:17.890Z,13.20
2022-10-05T03:33:45.500Z,13.18
2022-10-05T03:36:13.084Z,13.17
2022-10-05T03:38:40.716Z,13.15
2022-10-05T03:41:08.487Z,13.14
2022-10-05T03:43:36.830Z,13.14
2022-10-05T03:46:04.513Z,13.11
2022-10-05T03:48:32.081Z,13.11
2022-10-05T03:50:59.663Z,13.10
2022-10-05T03:53:27.483Z,13.09
2022-10-05T03:55:55.449Z,13.09
2022-10-05T03:58:22.978Z,13.08
2022-10-05T04:00:50.571Z,13.08
2022-10-05T04:03:18.130Z,13.06
2022-10-05T04:05:47.156Z,13.03
2022-10-05T04:08:15.100Z,13.00
2022-10-05T04:10:42.692Z,12.93
2022-10-05T04:13:10.219Z,12.91
2022-10-05T04:15:37.904Z,12.87
2022-10-05T04:18:05.652Z,12.83
2022-10-05T04:20:33.625Z,12.79
2022-10-05T04:23:01.219Z,12.74
2022-10-05T04:25:28.793Z,12.68
2022-10-05T04:27:56.910Z,12.65
2022-10-05T04:30:24.762Z,12.65
2022-10-05T04:32:52.740Z,12.65
2022-10-05T04:35:20.265Z,12.66
2022-10-05T04:37:47.869Z,12.68
2022-10-05T04:40:15.442Z,12.66
2022-10-05T04:42:43.242Z,12.64
2022-10-05T04:45:11.036Z,12.64
2022-10-05T04:47:38.765Z,12.62
2022-10-05T04:50:07.342Z,12.60
2022-10-05T04:52:35.138Z,12.62
2022-10-05T04:55:05.409Z,12.62
2022-10-05T04:57:34.081Z,12.61
2022-10-05T05:00:02.148Z,12.59
2022-10-05T05:02:29.710Z,12.58
2022-10-05T05:04:57.504Z,12.59
2022-10-05T05:07:25.452Z,12.61
2022-10-05T05:09:58.717Z,12.62
2022-10-05T05:12:26.349Z,12.62
2022-10-05T05:14:53.910Z,12.62
2022-10-05T05:17:21.486Z,12.63
2022-10-05T05:19:49.302Z,12.64
2022-10-05T05:22:17.220Z,12.65
2022-10-05T05:24:44.792Z,12.68
2022-10-05T05:27:12.576Z,12.68
2022-10-05T05:29:40.213Z,12.72
2022-10-05T05:32:07.988Z,12.73
2022-10-05T05:34:36.052Z,12.76
2022-10-05T05:37:03.668Z,12.79
2022-10-05T05:39:31.257Z,12.78
2022-10-05T05:41:58.841Z,12.77
2022-10-05T05:44:26.417Z,12.80
2022-10-05T05:47:09.902Z,12.80
2022-10-05T05:49:37.802Z,12.81
2022-10-05T05:52:05.402Z,12.83
2022-10-05T05:54:34.347Z,12.85
2022-10-05T05:57:04.807Z,12.88
2022-10-05T05:59:32.361Z,12.90
2022-10-05T06:02:00.021Z,12.92
2022-10-05T06:04:27.811Z,12.96
2022-10-05T06:06:55.781Z,12.99
2022-10-05T06:09:23.742Z,13.02
2022-10-05T06:11:51.383Z,13.09
2022-10-05T06:14:18.966Z,13.18
2022-10-05T06:16:47.297Z,13.27
2022-10-05T06:19:15.153Z,13.36
2022-10-05T06:21:43.157Z,13.42
2022-10-05T06:24:10.734Z,13.49
2022-10-05T06:26:38.395Z,13.55
2022-10-05T06:29:06.004Z,13.62
2022-10-05T06:31:33.970Z,13.68
2022-10-05T06:34:01.969Z,13.71
2022-10-05T06:36:29.747Z,13.77
2022-10-05T06:38:57.984Z,13.83
2022-10-05T06:41:25.690Z,13.88
2022-10-05T06:43:53.522Z,13.95
2022-10-05T06:46:21.590Z,14.01
2022-10-05T06:48:49.368Z,14.10
2022-10-05T06:51:17.018Z,14.16
2022-10-05T06:53:44.640Z,14.23
2022-10-05T06:56:12.267Z,14.30
2022-10-05T06:58:40.221Z,14.37
2022-10-05T07:01:10.747Z,14.45
2022-10-05T07:03:38.536Z,14.52
2022-10-05T07:06:06.171Z,14.59
2022-10-05T07:08:34.131Z,14.67
2022-10-05T07:11:01.887Z,14.72
2022-10-05T07:13:29.491Z,14.78
2022-10-05T07:15:57.226Z,14.86
2022-10-05T07:18:24.970Z,14.94
2022-10-05T07:20:52.729Z,15.01
2022-10-05T07:23:21.229Z,15.06
2022-10-05T07:25:49.605Z,15.12
2022-10-05T07:28:17.315Z,15.17
2022-10-05T07:30:45.002Z,15.22
2022-10-05T07:33:12.742Z,15.27
2022-10-05T07:35:58.330Z,15.31
2022-10-05T07:38:26.067Z,15.35
2022-10-05T07:40:53.696Z,15.39
2022-10-05T07:43:22.486Z,15.43
2022-10-05T07:45:50.296Z,15.47
2022-10-05T07:48:18.107Z,15.49
2022-10-05T07:50:45.769Z,15.52
2022-10-05T07:53:13.490Z,15.55
2022-10-05T07:55:41.342Z,15.58
2022-10-05T07:58:08.995Z,15.60
2022-10-05T08:00:37.283Z,15.64
2022-10-05T08:03:04.979Z,15.64
2022-10-05T08:05:33.695Z,15.65
2022-10-05T08:08:01.467Z,15.65
2022-10-05T08:10:29.267Z,15.66
2022-10-05T08:12:58.147Z,15.67
2022-10-05T08:15:25.912Z,15.67
2022-10-05T08:17:53.549Z,15.68
2022-10-05T08:20:21.559Z,15.68
2022-10-05T08:22:49.264Z,15.70
2022-10-05T08:25:16.973Z,15.71
2022-10-05T08:27:44.990Z,15.72
2022-10-05T08:30:12.677Z,15.74
2022-10-05T08:32:41.300Z,15.74
2022-10-05T08:35:09.023Z,15.76
2022-10-05T08:37:37.263Z,15.78
2022-10-05T08:40:05.042Z,15.78
2022-10-05T08:42:32.822Z,15.80
2022-10-05T08:45:00.788Z,15.79
2022-10-05T08:47:28.439Z,15.79
2022-10-05T08:49:57.224Z,15.78
2022-10-05T08:52:25.170Z,15.80
2022-10-05T08:54:52.882Z,15.80
2022-10-05T08:57:20.826Z,15.82
2022-10-05T08:59:48.651Z,15.86
2022-10-05T09:02:16.698Z,15.87
2022-10-05T09:04:44.417Z,15.95
2022-10-05T09:07:12.121Z,16.02
2022-10-05T09:09:39.900Z,16.14
2022-10-05T09:12:08.106Z,16.25
2022-10-05T09:14:36.096Z,16.36
2022-10-05T09:17:03.873Z,16.44
2022-10-05T09:19:31.561Z,16.51
2022-10-05T09:21:59.948Z,16.60
2022-10-05T09:24:27.693Z,16.68
2022-10-05T09:26:55.530Z,16.78
2022-10-05T09:29:23.179Z,16.84
2022-10-05T09:31:51.339Z,16.92
2022-10-05T09:34:19.454Z,17.01
2022-10-05T09:36:47.296Z,17.15
2022-10-05T09:39:15.359Z,17.27
2022-10-05T09:41:43.055Z,17.40
2022-10-05T09:44:10.957Z,17.52
2022-10-05T09:46:39.163Z,17.62
2022-10-05T09:49:06.940Z,17.74
2022-10-05T09:51:35.437Z,17.90
2022-10-05T09:54:03.650Z,18.10
2022-10-05T09:56:34.863Z,18.14
2022-10-05T09:59:03.613Z,18.23
2022-10-05T10:01:34.028Z,18.23
2022-10-05T10:04:02.437Z,18.26
2022-10-05T10:06:30.293Z,18.32
2022-10-05T10:08:58.242Z,18.29
2022-10-05T10:11:26.368Z,18.32
2022-10-05T10:13:54.173Z,18.34
2022-10-05T10:16:24.335Z,18.32
2022-10-05T10:18:52.285Z,18.31
2022-10-05T10:21:20.190Z,18.29
2022-10-05T10:23:48.277Z,18.25
2022-10-05T10:26:16.452Z,18.20
2022-10-05T10:28:44.866Z,18.11
2022-10-05T10:31:12.988Z,18.02
2022-10-05T10:33:40.955Z,17.94
2022-10-05T10:36:09.108Z,17.90
2022-10-05T10:38:37.334Z,17.91
2022-10-05T10:41:05.749Z,17.91
2022-10-05T10:43:33.571Z,17.91
2022-10-05T10:46:01.423Z,17.94
2022-10-05T10:48:29.489Z,17.96
2022-10-05T10:50:57.395Z,17.93
2022-10-05T10:53:25.792Z,17.94
2022-10-05T10:55:53.905Z,17.98
2022-10-05T10:58:21.894Z,18.04
2022-10-05T11:00:52.478Z,18.13
2022-10-05T11:03:20.305Z,18.29
2022-10-05T11:05:48.894Z,18.49
2022-10-05T11:08:16.883Z,18.67
2022-10-05T11:10:46.375Z,18.84
2022-10-05T11:13:14.277Z,19.16
2022-10-05T11:15:42.105Z,19.34
2022-10-05T11:18:10.353Z,19.36
2022-10-05T11:20:38.317Z,19.41
2022-10-05T11:23:06.634Z,19.88
2022-10-05T11:25:34.904Z,20.48
2022-10-05T11:28:02.859Z,20.96
2022-10-05T11:30:31.187Z,20.97
2022-10-05T11:33:00.416Z,21.20
2022-10-05T11:35:28.294Z,21.86
2022-10-05T11:37:56.095Z,22.58
2022-10-05T11:40:24.056Z,22.30
2022-10-05T11:42:52.087Z,21.93
2022-10-05T11:45:21.815Z,21.65
2022-10-05T11:47:49.696Z,21.47
2022-10-05T11:50:17.859Z,21.49
2022-10-05T11:52:45.767Z,21.59
2022-10-05T11:55:14.021Z,22.04
2022-10-05T11:57:41.934Z,22.67
2022-10-05T12:00:09.588Z,23.21
2022-10-05T12:02:39.973Z,23.66
2022-10-05T12:05:11.781Z,24.12
2022-10-05T12:07:39.582Z,24.51
2022-10-05T12:10:17.662Z,24.94
2022-10-05T12:12:45.622Z,25.01
2022-10-05T12:15:13.431Z,24.86
2022-10-05T12:17:41.532Z,24.79
2022-10-05T12:20:09.268Z,24.62
2022-10-05T12:22:37.151Z,24.26
2022-10-05T12:25:05.160Z,23.84
2022-10-05T12:27:33.119Z,23.63
2022-10-05T12:30:01.498Z,23.43
2022-10-05T12:32:29.669Z,23.12
2022-10-05T12:35:01.745Z,22.92
2022-10-05T12:37:30.198Z,22.85
2022-10-05T12:39:58.141Z,22.63
2022-10-05T12:42:26.246Z,22.41
2022-10-05T12:44:54.518Z,22.18
2022-10-05T12:47:24.110Z,22.09
2022-10-05T12:49:51.782Z,22.05
2022-10-05T12:52:19.519Z,22.00
2022-10-05T12:54:47.657Z,21.96
2022-10-05T12:57:15.490Z,21.91
2022-10-05T12:59:43.272Z,21.83
2022-10-05T13:02:11.191Z,21.74
2022-10-05T13:04:39.794Z,21.65
2022-10-05T13:07:08.073Z,21.57
2022-10-05T13:09:36.417Z,21.52
2022-10-05T13:12:05.163Z,21.50
2022-10-05T13:14:33.196Z,21.53
2022-10-05T13:17:01.007Z,21.56
2022-10-05T13:19:29.082Z,21.58
2022-10-05T13:21:56.907Z,21.66
2022-10-05T13:24:25.019Z,21.75
2022-10-05T13:26:52.910Z,21.86
2022-10-05T13:29:20.740Z,22.03
2022-10-05T13:31:49.521Z,22.23
2022-10-05T13:34:18.113Z,22.41
2022-10-05T13:36:46.092Z,22.59
2022-10-05T13:39:14.216Z,22.80
2022-10-05T13:41:43.958Z,22.89
2022-10-05T13:44:12.270Z,23.04
2022-10-05T13:46:40.385Z,23.12
2022-10-05T13:49:08.653Z,23.23
2022-10-05T13:51:36.688Z,23.43
2022-10-05T13:54:05.334Z,23.79
2022-10-05T13:56:33.401Z,24.29
2022-10-05T13:59:01.296Z,24.53
2022-10-05T14:01:29.185Z,24.60
2022-10-05T14:03:57.191Z,24.51
2022-10-05T14:06:27.917Z,24.31
2022-10-05T14:08:56.240Z,24.15
2022-10-05T14:11:24.067Z,24.03
2022-10-05T14:13:53.307Z,23.99
2022-10-05T14:16:21.598Z,23.96
2022-10-05T14:18:49.429Z,23.90
2022-10-05T14:21:17.945Z,23.80
2022-10-05T14:23:45.969Z,23.60
2022-10-05T14:26:13.691Z,23.51
2022-10-05T14:28:43.863Z,23.44
2022-10-05T14:31:11.983Z,23.44
2022-10-05T14:33:40.795Z,23.54
2022-10-05T14:36:08.593Z,23.63
2022-10-05T14:38:36.704Z,23.74
2022-10-05T14:41:04.928Z,23.78
2022-10-05T14:43:32.752Z,23.84
2022-10-05T14:46:01.947Z,23.90
2022-10-05T14:48:29.818Z,23.96
2022-10-05T14:50:57.727Z,23.90
2022-10-05T14:53:26.597Z,23.89
2022-10-05T14:55:56.047Z,24.06
2022-10-05T14:58:24.864Z,24.28
2022-10-05T15:00:53.203Z,24.50
2022-10-05T15:03:20.949Z,24.67
2022-10-05T15:05:49.376Z,24.87
2022-10-05T15:08:17.265Z,25.23
2022-10-05T15:10:45.574Z,25.51
2022-10-05T15:13:13.427Z,25.64
2022-10-05T15:15:41.420Z,25.80
2022-10-05T15:18:09.763Z,26.07
2022-10-05T15:20:37.645Z,26.26
2022-10-05T15:23:06.372Z,26.46
2022-10-05T15:25:34.179Z,26.59
2022-10-05T15:28:02.039Z,26.65
2022-10-05T15:30:30.063Z,26.73
2022-10-05T15:32:57.909Z,26.62
2022-10-05T15:35:26.147Z,26.32
2022-10-05T15:37:54.081Z,25.52
2022-10-05T15:40:22.003Z,24.54
2022-10-05T15:42:50.342Z,23.66
2022-10-05T15:45:19.413Z,22.89
2022-10-05T15:47:47.524Z,22.28
2022-10-05T15:50:15.335Z,21.82
2022-10-05T15:52:43.319Z,21.47
2022-10-05T15:55:11.051Z,21.19
2022-10-05T15:57:39.024Z,20.95
2022-10-05T16:00:07.311Z,20.75
2022-10-05T16:02:36.000Z,20.57
2022-10-05T16:05:05.020Z,20.42
2022-10-05T16:07:50.599Z,20.28
2022-10-05T16:10:18.794Z,20.13
2022-10-05T16:12:46.607Z,20.01
2022-10-05T16:15:16.480Z,19.89
2022-10-05T16:17:45.215Z,19.79
2022-10-05T16:20:14.951Z,19.70
2022-10-05T16:22:43.776Z,19.60
2022-10-05T16:25:12.226Z,19.52
2022-10-05T16:27:40.625Z,19.46
2022-10-05T16:30:09.090Z,19.39
2022-10-05T16:32:37.052Z,19.36
2022-10-05T16:35:05.387Z,19.29
2022-10-05T16:37:33.299Z,19.21
2022-10-05T16:40:00.976Z,19.13
2022-10-05T16:42:28.893Z,19.05
2022-10-05T16:44:56.933Z,18.96
2022-10-05T16:47:27.670Z,18.90
2022-10-05T16:49:55.764Z,18.85
2022-10-05T16:52:23.852Z,18.80
2022-10-05T16:54:51.649Z,18.77
2022-10-05T16:57:19.501Z,18.75
2022-10-05T16:59:48.146Z,18.74
2022-10-05T17:02:16.296Z,18.72
2022-10-05T17:04:44.169Z,18.71
2022-10-05T17:07:12.057Z,18.69
2022-10-05T17:09:40.600Z,18.70
2022-10-05T17:12:09.091Z,18.71
2022-10-05T17:14:37.002Z,18.72
2022-10-05T17:17:04.807Z,18.75
2022-10-05T17:19:32.959Z,18.79
2022-10-05T17:22:00.985Z,18.80
2022-10-05T17:24:29.746Z,18.82
2022-10-05T17:26:57.481Z,18.84
2022-10-05T17:29:25.332Z,18.88
2022-10-05T17:31:53.702Z,18.89
2022-10-05T17:34:21.569Z,18.86
2022-10-05T17:36:50.238Z,18.84
2022-10-05T17:39:18.107Z,18.84
2022-10-05T17:41:45.896Z,18.82
2022-10-05T17:44:13.867Z,18.79
2022-10-05T17:46:42.639Z,18.80
2022-10-05T17:49:11.031Z,18.83
2022-10-05T17:51:56.750Z,18.86
2022-10-05T17:54:41.774Z,18.87
2022-10-05T17:57:09.761Z,18.88
2022-10-05T17:59:37.886Z,18.88
2022-10-05T18:02:05.738Z,18.89
2022-10-05T18:04:34.194Z,18.88
2022-10-05T18:07:02.188Z,18.88
2022-10-05T18:09:31.098Z,18.88
2022-10-05T18:12:01.094Z,18.87
2022-10-05T18:14:29.011Z,18.80
2022-10-05T18:16:57.055Z,18.77
2022-10-05T18:19:24.900Z,18.73
2022-10-05T18:21:55.075Z,18.67
2022-10-05T18:24:23.798Z,18.61
2022-10-05T18:26:52.554Z,18.55
2022-10-05T18:29:40.287Z,18.55
2022-10-05T18:32:08.703Z,18.55
2022-10-05T18:34:37.566Z,18.54
2022-10-05T18:37:05.479Z,18.52
2022-10-05T18:39:33.804Z,18.51
2022-10-05T18:42:01.641Z,18.47
2022-10-05T18:44:30.650Z,18.41
2022-10-05T18:46:59.230Z,18.40
2022-10-05T18:49:27.018Z,18.39
2022-10-05T18:51:54.830Z,18.38
2022-10-05T18:54:25.310Z,18.36
2022-10-05T18:56:53.087Z,18.38
2022-10-05T18:59:24.811Z,18.38
2022-10-05T19:01:52.815Z,18.39
2022-10-05T19:04:22.525Z,18.40
2022-10-05T19:06:50.539Z,18.42
2022-10-05T19:09:18.538Z,18.42
2022-10-05T19:11:46.409Z,18.42
2022-10-05T19:14:14.314Z,18.42
2022-10-05T19:16:42.218Z,18.40
2022-10-05T19:19:10.099Z,18.40
2022-10-05T19:21:38.468Z,18.41
2022-10-05T19:24:06.378Z,18.42
2022-10-05T19:26:34.109Z,18.43
2022-10-05T19:29:02.043Z,18.45
2022-10-05T19:31:29.929Z,18.46
2022-10-05T19:33:57.921Z,18.46
2022-10-05T19:36:26.207Z,18.49
2022-10-05T19:38:54.412Z,18.50
2022-10-05T19:41:22.898Z,18.49
2022-10-05T19:43:50.872Z,18.51
2022-10-05T19:46:19.973Z,18.48
2022-10-05T19:48:48.985Z,18.44
2022-10-05T19:51:17.990Z,18.42
2022-10-05T19:53:47.169Z,18.42
2022-10-05T19:56:14.964Z,18.40
2022-10-05T19:58:42.735Z,18.41
2022-10-05T20:01:12.966Z,18.43
2022-10-05T20:03:41.278Z,18.41
2022-10-05T20:06:09.191Z,18.43
2022-10-05T20:08:37.100Z,18.44
2022-10-05T20:11:04.931Z,18.43
2022-10-05T20:13:35.629Z,18.46
2022-10-05T20:16:21.005Z,18.45
2022-10-05T20:19:06.263Z,18.48
2022-10-05T20:21:34.606Z,18.52
2022-10-05T20:24:05.185Z,18.54
2022-10-05T20:26:50.356Z,18.57
2022-10-05T20:29:18.201Z,18.60
2022-10-05T20:31:46.873Z,18.62
2022-10-05T20:34:15.220Z,18.64
2022-10-05T20:36:44.762Z,18.66
2022-10-05T20:39:13.423Z,18.69
2022-10-05T20:41:41.636Z,18.71
2022-10-05T20:44:09.365Z,18.73
2022-10-05T20:46:37.747Z,18.74
2022-10-05T20:49:08.610Z,18.75
2022-10-05T20:51:36.313Z,18.77
2022-10-05T20:54:04.346Z,18.78
2022-10-05T20:56:32.192Z,18.79
2022-10-05T20:59:00.418Z,18.80
2022-10-05T21:01:29.127Z,18.83
2022-10-05T21:03:57.237Z,18.83
2022-10-05T21:06:29.647Z,18.85
2022-10-05T21:08:57.481Z,18.85
2022-10-05T21:11:25.329Z,18.87
2022-10-05T21:13:53.914Z,18.90
2022-10-05T21:16:21.890Z,18.90
2022-10-05T21:18:49.648Z,18.91
2022-10-05T21:21:17.382Z,18.92
2022-10-05T21:23:46.019Z,18.95
2022-10-05T21:26:14.103Z,18.98
2022-10-05T21:28:41.810Z,18.98
2022-10-05T21:31:09.660Z,19.00
2022-10-05T21:33:37.501Z,19.00
2022-10-05T21:36:05.304Z,19.00
2022-10-05T21:38:33.218Z,19.02
2022-10-05T21:41:00.970Z,19.03
2022-10-05T21:43:28.818Z,19.03
2022-10-05T21:45:56.983Z,19.03
2022-10-05T21:48:25.346Z,19.04
2022-10-05T21:50:53.469Z,19.05
2022-10-05T21:53:21.274Z,19.04
2022-10-05T21:55:48.975Z,19.02
2022-10-05T21:58:16.673Z,18.99
2022-10-05T22:00:45.305Z,18.97
2022-10-05T22:03:13.092Z,18.94
2022-10-05T22:05:40.847Z,18.89
2022-10-05T22:08:08.819Z,18.87
2022-10-05T22:10:36.998Z,18.84
2022-10-05T22:13:04.688Z,18.82
2022-10-05T22:15:32.460Z,18.79
2022-10-05T22:18:00.100Z,18.76
2022-10-05T22:20:27.738Z,18.75
2022-10-05T22:22:55.469Z,18.72
2022-10-05T22:25:23.845Z,18.70
2022-10-05T22:27:51.653Z,18.69
2022-10-05T22:30:19.370Z,18.67
2022-10-05T22:32:47.520Z,18.67
2022-10-05T22:35:15.176Z,18.64
2022-10-05T22:37:42.965Z,18.62
2022-10-05T22:40:12.360Z,18.60
2022-10-05T22:42:40.631Z,18.55
2022-10-05T22:45:08.317Z,18.41
2022-10-05T22:47:35.972Z,17.94
2022-10-05T22:50:03.915Z,17.49
2022-10-05T22:52:31.568Z,17.09
2022-10-05T22:54:59.516Z,16.77
2022-10-05T22:57:27.147Z,16.54
2022-10-05T22:59:54.807Z,16.38
2022-10-05T23:02:22.699Z,16.20
2022-10-05T23:04:50.321Z,16.08
2022-10-05T23:07:17.959Z,15.96
2022-10-05T23:09:45.590Z,15.91
2022-10-05T23:12:13.504Z,15.89
2022-10-05T23:14:42.152Z,15.90
2022-10-05T23:17:09.732Z,15.94
2022-10-05T23:19:37.296Z,15.98
2022-10-05T23:22:04.925Z,16.03
2022-10-05T23:24:32.490Z,16.05
2022-10-05T23:27:00.408Z,16.06
2022-10-05T23:29:28.875Z,16.06
2022-10-05T23:31:56.519Z,16.02
2022-10-05T23:34:25.739Z,16.00
2022-10-05T23:36:53.360Z,15.97
2022-10-05T23:39:22.827Z,15.83
2022-10-05T23:41:50.550Z,15.71
2022-10-05T23:44:18.212Z,15.63
2022-10-05T23:46:45.801Z,15.51
2022-10-05T23:49:14.768Z,15.41
2022-10-05T23:51:42.940Z,15.31
2022-10-05T23:54:10.508Z,15.13
2022-10-05T23:56:38.080Z,14.93
2022-10-05T23:59:05.690Z,14.70
